Time;durP1;ratioP1;P1;durP2;ratioP2;P2;SDS_P1;SDS_P2;PMS_P1;PMS_P2;Temp;Humidity;BMP_temperature;BMP_pressure;BME280_temperature;BME280_humidity;BME280_pressure;Samples;Min_cycle;Max_cycle;Signal;HPM_P1;HPM_P2
2023/01/20 00:01:10;;;;;;;53.90;30.40;;;;;;;1.75;92.72;99759.28;107639;1254;88880;-54
2023/01/20 00:03:52;;;;;;;50.80;28.30;;;;;;;1.79;92.50;99761.79;107601;1254;95746;-54
2023/01/20 00:06:30;;;;;;;52.90;28.70;;;;;;;1.80;92.51;99767.73;107592;1253;77318;-55
2023/01/20 00:09:08;;;;;;;55.70;30.10;;;;;;;1.78;92.65;99771.94;107580;1253;81083;-55
2023/01/20 00:11:48;;;;;;;53.60;28.30;;;;;;;1.76;92.52;99778.87;107601;1254;99287;-55
2023/01/20 00:14:31;;;;;;;55.70;28.10;;;;;;;1.71;92.72;99781.23;107635;1252;89124;-55
2023/01/20 00:17:16;;;;;;;47.90;26.00;;;;;;;1.71;92.68;99786.86;107601;1252;93501;-55
2023/01/20 00:19:54;;;;;;;;;;;;;;;1.69;92.87;99791.79;107636;1251;79417;-57
2023/01/20 00:22:41;;;;;;;52.00;26.50;;;;;;;1.71;92.90;99795.54;107720;1251;81749;-56
2023/01/20 00:25:26;;;;;;;50.90;26.80;;;;;;;1.69;92.89;99801.43;107697;1254;98837;-54
2023/01/20 00:28:11;;;;;;;51.00;25.70;;;;;;;1.73;92.91;99804.65;107687;1251;87361;-54
2023/01/20 00:30:55;;;;;;;51.10;27.20;;;;;;;1.74;92.87;99805.20;107719;1251;95692;-60
2023/01/20 00:33:39;;;;;;;50.20;25.90;;;;;;;1.78;92.67;99811.41;107714;1251;80287;-58
2023/01/20 00:36:15;;;;;;;50.30;26.60;;;;;;;1.82;92.61;99813.50;107772;1250;83399;-55
2023/01/20 00:38:52;;;;;;;49.90;27.40;;;;;;;1.83;92.74;99818.27;107658;1251;97416;-55
2023/01/20 00:41:33;;;;;;;49.30;25.90;;;;;;;1.82;92.61;99825.79;107815;1254;88439;-55
2023/01/20 00:44:12;;;;;;;48.80;24.10;;;;;;;1.75;92.83;99832.30;107722;1251;93505;-54
2023/01/20 00:46:56;;;;;;;51.90;25.90;;;;;;;1.70;92.75;99834.77;107713;1250;79936;-54
2023/01/20 00:49:36;;;;;;;50.30;25.40;;;;;;;1.70;92.76;99837.72;107813;1251;81903;-56
2023/01/20 00:52:20;;;;;;;47.90;25.70;;;;;;;1.69;92.63;99842.07;107766;1251;99532;-55
2023/01/20 00:55:01;;;;;;;50.50;26.00;;;;;;;1.69;92.57;99843.97;107753;1250;89663;-55
2023/01/20 00:57:46;;;;;;;49.20;24.30;;;;;;;1.69;92.70;99850.09;107678;1254;95302;-55
2023/01/20 01:00:23;;;;;;;47.20;24.50;;;;;;;1.71;92.74;99854.31;107719;1251;81498;-56
2023/01/20 01:03:04;;;;;;;;;;;;;;;1.75;92.73;99850.40;107803;1254;82839;-57
2023/01/20 01:05:51;;;;;;;47.70;25.40;;;;;;;1.73;92.81;99852.54;107702;1250;99467;-54
2023/01/20 01:08:28;;;;;;;47.90;23.30;;;;;;;1.69;92.73;99852.73;107677;1250;86732;-56
2023/01/20 01:11:11;;;;;;;47.00;25.00;;;;;;;1.67;92.44;99856.68;107708;1251;94462;-54
2023/01/20 01:13:49;;;;;;;45.20;24.30;;;;;;;1.63;92.32;99858.46;107668;1251;79365;-55
2023/01/20 01:16:29;;;;;;;44.90;23.30;;;;;;;1.55;92.57;99855.86;107739;1251;83414;-54
2023/01/20 01:19:08;;;;;;;49.90;25.50;;;;;;;1.52;92.69;99857.27;107662;1250;99152;-55
2023/01/20 01:21:50;;;;;;;49.70;25.30;;;;;;;1.53;92.84;99857.63;107682;1251;87374;-54
2023/01/20 01:24:37;;;;;;;49.70;26.40;;;;;;;1.48;92.83;99862.55;107665;1254;94797;-55
2023/01/20 01:27:18;;;;;;;44.80;24.60;;;;;;;1.42;92.63;99864.55;107690;1251;81716;-55
2023/01/20 01:30:02;;;;;;;46.90;24.70;;;;;;;1.47;92.72;99869.59;107785;1251;81840;-56
2023/01/20 01:32:44;;;;;;;48.60;23.80;;;;;;;1.54;92.88;99873.52;107707;1251;96688;-55
2023/01/20 01:35:22;;;;;;;46.30;24.40;;;;;;;1.57;92.90;99873.28;107752;1251;88210;-57
2023/01/20 01:38:06;;;;;;;46.40;24.30;;;;;;;1.56;93.10;99878.13;107785;1251;95197;-57
2023/01/20 01:40:55;;;;;;;46.60;24.40;;;;;;;1.54;93.12;99881.83;107722;1251;79698;-55
2023/01/20 01:43:34;;;;;;;49.30;26.20;;;;;;;1.61;92.94;99877.30;107731;1250;82786;-54
2023/01/20 01:46:17;;;;;;;44.10;23.40;;;;;;;1.62;93.03;99880.35;107724;1251;100337;-55
2023/01/20 01:49:04;;;;;;;48.20;24.80;;;;;;;1.62;93.06;99885.88;107736;1250;87568;-55
2023/01/20 01:51:49;;;;;;;47.10;24.80;;;;;;;1.62;93.08;99886.79;107725;1251;95414;-54
2023/01/20 01:54:35;;;;;;;45.00;23.60;;;;;;;1.61;93.19;99884.95;107728;1251;80233;-55
2023/01/20 01:57:17;;;;;;;48.40;24.30;;;;;;;1.61;92.88;99883.16;107708;1250;82860;-56
2023/01/20 01:59:59;;;;;;;45.70;24.40;;;;;;;1.58;92.73;99883.27;107718;1251;99610;-54
2023/01/20 02:02:37;;;;;;;44.40;22.80;;;;;;;1.51;92.68;99882.72;107689;1251;87991;-55
2023/01/20 02:05:16;;;;;;;50.30;24.70;;;;;;;1.48;92.59;99882.97;107689;1251;93080;-56
2023/01/20 02:07:54;;;;;;;49.60;26.30;;;;;;;1.45;92.44;99882.53;107765;1254;81708;-57
2023/01/20 02:10:30;;;;;;;44.70;22.50;;;;;;;1.42;92.44;99879.48;107766;1251;81659;-54
2023/01/20 02:13:10;;;;;;;48.00;23.30;;;;;;;1.39;92.70;99877.27;107684;1254;97157;-54
2023/01/20 02:15:58;;;;;;;46.20;23.50;;;;;;;1.38;92.61;99876.87;107766;1251;87673;-56
2023/01/20 02:18:52;;;;;;;45.10;23.20;;;;;;;1.36;92.81;99878.85;107738;1250;94932;-56
2023/01/20 02:22:05;;;;;;;43.40;22.40;;;;;;;1.37;92.83;99880.85;107697;1250;80329;-55
2023/01/20 02:25:31;;;;;;;44.70;21.50;;;;;;;1.35;92.83;99888.13;107713;1251;80694;-55
2023/01/20 02:28:44;;;;;;;44.60;22.40;;;;;;;1.37;92.88;99890.63;107561;1250;99084;-54
2023/01/20 02:31:54;;;;;;;47.90;22.70;;;;;;;1.35;92.92;99890.98;107699;1254;87860;-56
2023/01/20 02:34:43;;;;;;;45.40;21.40;;;;;;;1.34;92.90;99891.40;107711;1250;95739;-58
2023/01/20 02:37:29;;;;;;;46.40;22.30;;;;;;;1.34;92.82;99891.27;107777;1251;80726;-57
2023/01/20 02:40:20;;;;;;;49.40;23.50;;;;;;;1.35;92.73;99895.07;107774;1250;80281;-57
2023/01/20 02:43:16;;;;;;;48.00;23.10;;;;;;;1.38;92.83;99894.03;107779;1251;98437;-56
2023/01/20 02:46:02;;;;;;;43.90;21.60;;;;;;;1.39;92.78;99892.71;107707;1250;88692;-53
2023/01/20 02:48:48;;;;;;;49.60;24.30;;;;;;;1.41;92.95;99895.67;107726;1251;95578;-55
2023/01/20 02:51:35;;;;;;;44.60;22.20;;;;;;;1.41;92.65;99898.70;107718;1254;80482;-54
2023/01/20 02:54:22;;;;;;;49.90;24.60;;;;;;;1.44;92.62;99894.02;107668;1250;80457;-53
2023/01/20 02:57:05;;;;;;;47.10;23.20;;;;;;;1.42;92.55;99893.02;107658;1251;98796;-56
2023/01/20 02:59:57;;;;;;;45.60;22.90;;;;;;;1.39;92.51;99891.79;107670;1254;88428;-56
2023/01/20 03:02:42;;;;;;;40.40;20.70;;;;;;;1.38;92.65;99886.61;107666;1251;94899;-55
2023/01/20 03:05:25;;;;;;;43.00;21.10;;;;;;;1.36;92.73;99888.89;107682;1251;81970;-55
2023/01/20 03:08:09;;;;;;;47.10;23.60;;;;;;;1.36;92.73;99888.42;107689;1250;83155;-55
2023/01/20 03:10:53;;;;;;;46.70;22.10;;;;;;;1.32;92.80;99890.40;107725;1250;98489;-57
2023/01/20 03:13:38;;;;;;;40.50;19.90;;;;;;;1.30;92.79;99889.17;107702;1250;88653;-55
2023/01/20 03:16:27;;;;;;;45.50;22.50;;;;;;;1.31;92.88;99894.38;107710;1251;93397;-55
2023/01/20 03:19:03;;;;;;;49.50;23.70;;;;;;;1.28;92.93;99899.92;107650;1254;79484;-54
2023/01/20 03:21:43;;;;;;;51.70;23.90;;;;;;;1.27;92.88;99900.27;107835;1251;82436;-56
2023/01/20 03:24:23;;;;;;;48.10;21.30;;;;;;;1.31;93.08;99893.80;107746;1254;97145;-54
2023/01/20 03:27:03;;;;;;;48.90;23.60;;;;;;;1.35;92.99;99898.55;107667;1251;89338;-53
2023/01/20 03:29:47;;;;;;;45.90;22.50;;;;;;;1.40;92.99;99897.73;107707;1251;94599;-55
2023/01/20 03:32:28;;;;;;;51.30;23.60;;;;;;;1.41;93.21;99905.81;107663;1250;81663;-55
2023/01/20 03:35:09;;;;;;;49.70;24.80;;;;;;;1.47;93.23;99907.37;107780;1251;82470;-55
2023/01/20 03:37:53;;;;;;;51.20;24.70;;;;;;;1.49;93.32;99910.75;107731;1251;97455;-55
2023/01/20 03:40:43;;;;;;;50.50;24.10;;;;;;;1.46;93.42;99914.91;107720;1251;88455;-55
2023/01/20 03:43:33;;;;;;;47.80;24.20;;;;;;;1.50;93.39;99916.16;107683;1251;94799;-55
2023/01/20 03:46:24;;;;;;;50.90;23.80;;;;;;;1.54;93.35;99915.44;107681;1251;81904;-57
2023/01/20 03:49:16;;;;;;;53.80;24.30;;;;;;;1.52;93.44;99918.09;107683;1251;84950;-56
2023/01/20 03:52:03;;;;;;;51.20;23.40;;;;;;;1.51;93.45;99922.80;107651;1256;97999;-55
2023/01/20 03:54:49;;;;;;;49.90;23.50;;;;;;;1.52;93.51;99929.75;107673;1252;88916;-55
2023/01/20 03:57:39;;;;;;;52.20;24.00;;;;;;;1.53;93.37;99937.11;107641;1251;94891;-54
2023/01/20 04:00:21;;;;;;;54.40;24.90;;;;;;;1.53;93.41;99939.47;107605;1251;81518;-55
2023/01/20 04:03:05;;;;;;;55.50;25.20;;;;;;;1.54;93.15;99945.80;107638;1251;81447;-55
2023/01/20 04:05:49;;;;;;;51.20;23.50;;;;;;;1.59;93.28;99955.77;107669;1255;97459;-51
2023/01/20 04:08:42;;;;;;;54.30;23.90;;;;;;;1.60;93.23;99965.09;107655;1251;88081;-53
2023/01/20 04:11:30;;;;;;;60.40;26.10;;;;;;;1.58;93.17;99969.66;107654;1251;93144;-57
2023/01/20 04:14:13;;;;;;;51.80;23.20;;;;;;;1.61;93.00;99971.56;107671;1251;80574;-55
2023/01/20 04:16:53;;;;;;;50.30;23.60;;;;;;;1.60;93.29;99982.07;107660;1255;82951;-52
2023/01/20 04:19:32;;;;;;;54.80;24.80;;;;;;;1.60;93.26;99984.52;107692;1251;97174;-54
2023/01/20 04:22:20;;;;;;;50.00;22.90;;;;;;;1.60;93.26;99985.62;107653;1251;88573;-54
2023/01/20 04:25:10;;;;;;;52.20;23.50;;;;;;;1.60;93.15;99991.52;107685;1251;95127;-57
2023/01/20 04:27:50;;;;;;;54.80;23.40;;;;;;;1.57;93.29;99992.70;107739;1251;80348;-57
2023/01/20 04:30:29;;;;;;;56.70;25.20;;;;;;;1.53;93.18;99995.49;107730;1251;83327;-55
2023/01/20 04:33:09;;;;;;;51.40;23.50;;;;;;;1.50;93.15;99992.42;107720;1251;98943;-55
2023/01/20 04:35:52;;;;;;;56.10;24.60;;;;;;;1.50;93.10;99993.67;107768;1254;89219;-55
2023/01/20 04:38:40;;;;;;;48.40;23.00;;;;;;;1.48;93.27;99998.45;107731;1255;95506;-55
2023/01/20 04:41:20;;;;;;;52.10;21.70;;;;;;;1.48;93.31;99996.88;107732;1251;81449;-52
2023/01/20 04:44:05;;;;;;;47.30;21.10;;;;;;;1.53;93.40;99996.80;107727;1251;81775;-52
2023/01/20 04:46:48;;;;;;;49.70;22.50;;;;;;;1.55;93.33;100004.77;107774;1251;96793;-56
2023/01/20 04:49:30;;;;;;;49.80;21.80;;;;;;;1.52;93.34;100008.95;107733;1255;88865;-54
2023/01/20 04:52:08;;;;;;;52.00;22.70;;;;;;;1.51;93.41;100017.70;107640;1251;96079;-55
2023/01/20 04:54:46;;;;;;;48.00;21.30;;;;;;;1.52;93.44;100026.90;107671;1251;81146;-57
2023/01/20 04:57:29;;;;;;;52.10;22.70;;;;;;;1.48;93.27;100033.41;107689;1251;82290;-58
2023/01/20 05:00:08;;;;;;;48.60;21.70;;;;;;;1.52;93.37;100040.52;107680;1251;98380;-54
2023/01/20 05:02:53;;;;;;;47.60;21.10;;;;;;;1.57;93.42;100047.36;107674;1251;86988;-54
2023/01/20 05:05:33;;;;;;;49.50;21.40;;;;;;;1.61;93.32;100053.33;107662;1251;93281;-53
2023/01/20 05:08:16;;;;;;;47.60;21.30;;;;;;;1.65;93.25;100059.11;107681;1251;79455;-54
2023/01/20 05:10:55;;;;;;;46.90;22.90;;;;;;;1.62;93.22;100056.10;107694;1251;82693;-53
2023/01/20 05:13:38;;;;;;;47.80;21.50;;;;;;;1.54;93.33;100058.95;107663;1251;99124;-53
2023/01/20 05:16:24;;;;;;;50.20;21.90;;;;;;;1.59;93.64;100056.77;107727;1251;89076;-55
2023/01/20 05:19:05;;;;;;;48.30;21.00;;;;;;;1.61;93.50;100061.52;107645;1251;95360;-54
2023/01/20 05:21:53;;;;;;;50.40;22.30;;;;;;;1.58;93.36;100064.81;107681;1251;80347;-56
2023/01/20 05:24:37;;;;;;;50.00;22.30;;;;;;;1.56;93.34;100064.06;107708;1251;81904;-58
2023/01/20 05:27:15;;;;;;;55.70;24.30;;;;;;;1.56;93.30;100062.13;107731;1254;97372;-57
2023/01/20 05:30:00;;;;;;;53.10;23.70;;;;;;;1.53;93.53;100064.95;107771;1251;88815;-55
2023/01/20 05:32:47;;;;;;;57.70;24.00;;;;;;;1.55;93.70;100067.34;107708;1251;96060;-55
2023/01/20 05:35:28;;;;;;;54.40;23.30;;;;;;;1.61;93.55;100076.44;107676;1253;81593;-55
2023/01/20 05:38:13;;;;;;;57.90;24.10;;;;;;;1.67;93.53;100081.55;107669;1253;81582;-55
2023/01/20 05:40:50;;;;;;;55.70;23.90;;;;;;;1.68;93.57;100081.13;107694;1251;96760;-56
2023/01/20 05:43:31;;;;;;;54.40;24.10;;;;;;;1.69;93.47;100090.59;107706;1251;88418;-55
2023/01/20 05:46:17;;;;;;;54.30;23.80;;;;;;;1.69;93.56;100096.28;107667;1251;94911;-55
2023/01/20 05:49:03;;;;;;;56.10;22.50;;;;;;;1.70;93.71;100091.90;107617;1253;79908;-55
2023/01/20 05:51:47;;;;;;;56.80;23.90;;;;;;;1.72;93.79;100087.95;107675;1251;82762;-53
2023/01/20 05:54:25;;;;;;;58.90;23.80;;;;;;;1.67;93.62;100088.27;107671;1256;99036;-55
2023/01/20 05:56:59;;;;;;;53.80;22.30;;;;;;;1.63;93.53;100099.84;107702;1251;87961;-56
2023/01/20 05:59:39;;;;;;;58.20;23.60;;;;;;;1.64;93.71;100113.75;107606;1252;93540;-57
2023/01/20 06:02:24;;;;;;;55.60;22.90;;;;;;;1.67;93.64;100124.09;107669;1251;81491;-59
2023/01/20 06:05:08;;;;;;;55.70;23.30;;;;;;;1.71;93.52;100139.20;107658;1251;83516;-56
2023/01/20 06:07:49;;;;;;;56.80;25.40;;;;;;;1.72;93.45;100151.19;107625;1251;96678;-57
2023/01/20 06:10:28;;;;;;;60.50;25.70;;;;;;;1.71;93.52;100170.44;107688;1251;86843;-54
2023/01/20 06:13:09;;;;;;;61.30;25.80;;;;;;;1.71;93.61;100176.45;107650;1251;93112;-54
2023/01/20 06:15:55;;;;;;;64.70;28.40;;;;;;;1.72;93.82;100178.91;107685;1256;81348;-56
2023/01/20 06:18:33;;;;;;;62.80;27.20;;;;;;;1.74;93.82;100178.35;107714;1251;81315;-57
2023/01/20 06:21:10;;;;;;;64.80;28.40;;;;;;;1.76;93.81;100179.90;107699;1251;98391;-56
2023/01/20 06:23:51;;;;;;;59.10;26.50;;;;;;;1.78;93.61;100192.83;107722;1251;86468;-55
2023/01/20 06:26:37;;;;;;;57.60;25.60;;;;;;;1.77;93.57;100200.75;107737;1251;95664;-53
2023/01/20 06:29:16;;;;;;;59.40;26.20;;;;;;;1.73;93.76;100209.44;107742;1251;78093;-55
2023/01/20 06:31:55;;;;;;;62.60;26.90;;;;;;;1.72;93.87;100212.09;107355;1251;432245;-54
2023/01/20 06:34:40;;;;;;;64.50;27.10;;;;;;;1.70;94.01;100216.16;107766;1251;98032;-56
2023/01/20 06:37:22;;;;;;;62.10;26.80;;;;;;;1.69;93.96;100218.49;107696;1251;88425;-56
2023/01/20 06:40:06;;;;;;;65.20;28.70;;;;;;;1.67;94.00;100215.13;107717;1251;94655;-56
2023/01/20 06:42:48;;;;;;;56.70;24.80;;;;;;;1.71;93.89;100213.57;107702;1251;79351;-56
2023/01/20 06:45:27;;;;;;;60.90;25.80;;;;;;;1.74;93.92;100218.13;107693;1251;82149;-56
2023/01/20 06:48:04;;;;;;;62.50;27.80;;;;;;;1.71;93.89;100219.45;107677;1251;99574;-56
2023/01/20 06:50:39;;;;;;;58.20;25.30;;;;;;;1.72;93.88;100220.02;107698;1251;87373;-55
2023/01/20 06:53:16;;;;;;;;;;;;;;;1.75;93.82;100222.08;107700;1255;94702;-55
2023/01/20 06:56:00;;;;;;;57.50;24.80;;;;;;;1.73;93.75;100222.64;107677;1251;81075;-54
2023/01/20 06:58:37;;;;;;;58.50;23.70;;;;;;;1.76;93.73;100229.79;107689;1256;82545;-54
2023/01/20 07:01:15;;;;;;;59.90;25.70;;;;;;;1.79;93.93;100236.12;107644;1253;96957;-55
2023/01/20 07:03:53;;;;;;;56.30;24.20;;;;;;;1.83;93.81;100239.49;107670;1251;88426;-54
2023/01/20 07:06:31;;;;;;;52.90;21.80;;;;;;;1.89;93.83;100238.96;107647;1251;92964;-53
2023/01/20 07:09:14;;;;;;;57.30;22.70;;;;;;;1.90;93.75;100235.44;107665;1251;79002;-54
2023/01/20 07:11:50;;;;;;;54.10;22.30;;;;;;;1.95;93.86;100241.81;107655;1254;80681;-57
2023/01/20 07:14:24;;;;;;;62.90;24.90;;;;;;;1.93;93.90;100247.27;107720;1251;97230;-55
2023/01/20 07:17:12;;;;;;;55.80;25.00;;;;;;;1.90;93.71;100256.94;107712;1253;87987;-55
2023/01/20 07:19:57;;;;;;;56.50;24.50;;;;;;;1.91;93.72;100254.25;107640;1251;95504;-55
2023/01/20 07:22:39;;;;;;;61.00;23.70;;;;;;;1.89;93.78;100259.05;107688;1251;80217;-55
2023/01/20 07:25:19;;;;;;;58.30;25.70;;;;;;;1.89;93.85;100268.41;107728;1251;83231;-56
2023/01/20 07:28:01;;;;;;;54.60;24.40;;;;;;;1.92;93.91;100275.08;107688;1251;98292;-57
2023/01/20 07:30:46;;;;;;;59.50;25.10;;;;;;;1.89;93.94;100277.13;107796;1251;87105;-54
2023/01/20 07:33:30;;;;;;;52.40;22.50;;;;;;;1.94;94.05;100270.77;107701;1251;95545;-54
2023/01/20 07:36:09;;;;;;;50.60;23.50;;;;;;;2.01;93.91;100268.41;107692;1252;81400;-55
2023/01/20 07:38:49;;;;;;;54.30;23.40;;;;;;;2.05;93.99;100272.11;107710;1251;82439;-55
2023/01/20 07:41:34;;;;;;;57.10;25.50;;;;;;;2.10;93.90;100271.11;107732;1251;98911;-58
2023/01/20 07:44:14;;;;;;;53.40;23.60;;;;;;;2.11;94.04;100266.54;107759;1251;87561;-58
2023/01/20 07:46:55;;;;;;;50.20;21.90;;;;;;;2.09;93.97;100264.42;107682;1253;94508;-54
2023/01/20 07:49:36;;;;;;;50.40;23.60;;;;;;;2.09;93.95;100265.69;107676;1255;81463;-54
2023/01/20 07:52:15;;;;;;;50.80;22.50;;;;;;;2.10;93.68;100270.38;107647;1255;81094;-55
2023/01/20 07:55:14;;;;;;;52.00;22.60;;;;;;;2.08;93.77;100272.55;107664;1251;97615;-55
2023/01/20 07:58:03;;;;;;;54.30;23.10;;;;;;;2.10;93.64;100272.92;107478;1251;88849;-56
2023/01/20 08:00:49;;;;;;;49.70;23.10;;;;;;;2.12;93.73;100277.00;107704;1251;94356;-53
2023/01/20 08:03:29;;;;;;;46.10;22.60;;;;;;;2.16;93.82;100286.88;107617;1255;81201;-55
2023/01/20 08:06:19;;;;;;;44.90;20.70;;;;;;;2.18;93.85;100280.69;107671;1255;81717;-57
2023/01/20 08:09:03;;;;;;;51.60;23.40;;;;;;;2.21;93.91;100279.51;107711;1251;98478;-56
2023/01/20 08:11:39;;;;;;;59.40;27.20;;;;;;;2.26;93.79;100284.55;107614;1253;86914;-56
2023/01/20 08:14:23;;;;;;;94.80;44.70;;;;;;;2.28;93.77;100286.18;107578;1251;95922;-56
2023/01/20 08:17:02;;;;;;;73.30;37.70;;;;;;;2.33;93.67;100287.98;107706;1251;80135;-56
2023/01/20 08:19:50;;;;;;;53.30;27.80;;;;;;;2.32;93.68;100288.77;107700;1251;84371;-56
2023/01/20 08:22:29;;;;;;;47.60;23.50;;;;;;;2.31;93.80;100292.08;107612;1258;98249;-55
2023/01/20 08:25:08;;;;;;;43.80;21.00;;;;;;;2.33;93.58;100290.98;107665;1254;89121;-56
2023/01/20 08:27:50;;;;;;;41.00;20.50;;;;;;;2.32;93.66;100291.59;107785;1254;93720;-57
2023/01/20 08:30:30;;;;;;;45.70;23.10;;;;;;;2.36;93.70;100286.17;107740;1253;79585;-57
2023/01/20 08:33:11;;;;;;;40.90;20.40;;;;;;;2.42;93.86;100287.52;107627;1254;82958;-56
2023/01/20 08:35:54;;;;;;;42.00;19.30;;;;;;;2.46;93.81;100284.15;107717;1253;99162;-55
2023/01/20 08:38:33;;;;;;;42.10;20.50;;;;;;;2.48;93.62;100283.48;107731;1254;88259;-56
2023/01/20 08:41:19;;;;;;;41.40;19.80;;;;;;;2.52;93.87;100292.26;107696;1254;95893;-56
2023/01/20 08:44:01;;;;;;;40.90;20.10;;;;;;;2.58;93.53;100294.39;107709;1251;78522;-55
2023/01/20 08:46:40;;;;;;;41.00;19.80;;;;;;;2.64;93.94;100299.34;107679;1251;82538;-57
2023/01/20 08:49:23;;;;;;;37.00;20.30;;;;;;;2.70;93.86;100301.98;107687;1251;98530;-57
2023/01/20 08:51:59;;;;;;;43.70;21.70;;;;;;;2.70;93.76;100305.89;107592;1256;87530;-56
2023/01/20 08:54:40;;;;;;;40.50;20.80;;;;;;;2.69;93.62;100309.73;107674;1253;95518;-57
2023/01/20 08:57:17;;;;;;;41.80;20.10;;;;;;;2.69;93.57;100313.27;107697;1251;79802;-58
2023/01/20 08:59:54;;;;;;;41.10;19.60;;;;;;;2.71;93.55;100312.71;107700;1256;83187;-58
2023/01/20 09:02:34;;;;;;;43.40;20.90;;;;;;;2.72;93.70;100315.98;107688;1254;96184;-60
2023/01/20 09:05:14;;;;;;;41.30;19.10;;;;;;;2.79;93.53;100315.14;107666;1252;87827;-57
2023/01/20 09:07:56;;;;;;;37.30;19.60;;;;;;;2.82;93.62;100307.59;107695;1254;94354;-56
2023/01/20 09:10:38;;;;;;;38.60;19.60;;;;;;;2.93;93.72;100307.98;107660;1254;81279;-55
2023/01/20 09:13:20;;;;;;;43.20;21.60;;;;;;;2.96;93.64;100308.23;107698;1252;82132;-55
2023/01/20 09:15:59;;;;;;;41.50;20.40;;;;;;;3.03;93.45;100304.27;107721;1256;99120;-57
2023/01/20 09:18:35;;;;;;;41.60;20.70;;;;;;;3.02;93.30;100308.30;107711;1251;88098;-55
2023/01/20 09:21:11;;;;;;;32.40;17.40;;;;;;;3.06;93.26;100308.96;107520;1253;97464;-56
2023/01/20 09:23:54;;;;;;;33.60;18.50;;;;;;;3.04;93.20;100317.73;107597;1253;78360;-56
2023/01/20 09:26:41;;;;;;;34.80;17.90;;;;;;;3.03;93.13;100321.98;107580;1253;83034;-55
2023/01/20 09:29:23;;;;;;;38.40;18.70;;;;;;;2.99;92.93;100321.70;107534;1253;99795;-56
2023/01/20 09:32:11;;;;;;;32.00;17.10;;;;;;;2.99;93.08;100325.95;107544;1253;87321;-56
2023/01/20 09:34:53;;;;;;;36.90;19.70;;;;;;;2.98;92.85;100331.55;107493;1254;96075;-56
2023/01/20 09:43:55;;;;;;;34.40;17.70;;;;;;;3.06;92.72;100342.18;107581;1253;97123;-57
2023/01/20 09:47:18;;;;;;;33.20;17.70;;;;;;;3.11;92.76;100346.50;107496;1253;88348;-56
2023/01/20 09:53:14;;;;;;;28.70;16.60;;;;;;;3.10;92.51;100359.02;107535;1253;76802;-55
2023/01/20 09:55:55;;;;;;;30.70;17.20;;;;;;;3.10;92.59;100356.22;107574;1253;79752;-54
2023/01/20 09:58:37;;;;;;;29.90;17.90;;;;;;;3.13;92.53;100361.08;107451;1253;99517;-55
2023/01/20 10:01:19;;;;;;;32.00;17.00;;;;;;;3.20;92.55;100361.54;107586;1253;89131;-56
2023/01/20 10:04:08;;;;;;;29.40;16.30;;;;;;;3.30;92.51;100357.34;107545;1253;94118;-56
2023/01/20 10:06:48;;;;;;;28.10;15.60;;;;;;;3.31;92.39;100357.59;107569;1259;80858;-55
2023/01/20 10:09:35;;;;;;;30.00;16.20;;;;;;;3.35;92.32;100360.75;107642;1253;81495;-54
2023/01/20 10:12:26;;;;;;;28.50;16.00;;;;;;;3.38;92.14;100356.19;107595;1253;97865;-53
2023/01/20 10:15:11;;;;;;;25.30;15.10;;;;;;;3.42;92.11;100357.11;107640;1253;88574;-56
2023/01/20 10:17:57;;;;;;;29.60;17.40;;;;;;;3.46;92.17;100356.20;107537;1253;95526;-56
2023/01/20 10:20:48;;;;;;;28.50;16.00;;;;;;;3.49;91.99;100352.08;107638;1257;78405;-55
2023/01/20 10:23:35;;;;;;;31.60;17.30;;;;;;;3.50;92.16;100349.41;107668;1251;83042;-55
2023/01/20 10:26:19;;;;;;;29.60;16.50;;;;;;;3.52;92.07;100348.14;107720;1251;99298;-55
2023/01/20 10:29:02;;;;;;;28.10;16.50;;;;;;;3.52;91.75;100352.19;107664;1252;89262;-54
2023/01/20 10:31:45;;;;;;;30.00;16.10;;;;;;;3.49;91.95;100356.60;107658;1251;94449;-54
2023/01/20 10:34:32;;;;;;;32.20;17.30;;;;;;;3.47;91.86;100357.48;107678;1251;79595;-53
2023/01/20 10:37:10;;;;;;;31.50;17.90;;;;;;;3.52;91.74;100360.88;107668;1255;83157;-54
2023/01/20 10:40:06;;;;;;;29.30;17.60;;;;;;;3.52;91.57;100365.35;107600;1253;97802;-55
2023/01/20 10:42:56;;;;;;;33.30;17.10;;;;;;;3.50;91.64;100367.58;107660;1254;90190;-56
2023/01/20 10:45:46;;;;;;;29.00;17.20;;;;;;;3.43;91.61;100365.16;107665;1253;94230;-54
2023/01/20 10:48:42;;;;;;;30.20;18.00;;;;;;;3.41;91.42;100368.88;107697;1256;76914;-54
2023/01/20 10:51:33;;;;;;;30.40;18.40;;;;;;;3.39;91.48;100375.02;107657;1254;83186;-56
2023/01/20 10:54:28;;;;;;;34.10;18.60;;;;;;;3.30;91.47;100381.50;107587;1254;98091;-56
2023/01/20 10:57:10;;;;;;;34.00;18.40;;;;;;;3.31;91.54;100379.89;107685;1255;88766;-56
2023/01/20 10:59:50;;;;;;;32.50;18.20;;;;;;;3.35;91.75;100379.78;107707;1254;95301;-58
2023/01/20 11:02:29;;;;;;;33.10;17.70;;;;;;;3.39;91.60;100383.73;107752;1251;79114;-57
2023/01/20 11:05:20;;;;;;;31.70;18.40;;;;;;;3.45;91.39;100377.05;107774;1251;82308;-58
2023/01/20 11:07:56;;;;;;;32.60;17.00;;;;;;;3.53;91.58;100375.77;107731;1252;98460;-57
2023/01/20 11:10:35;;;;;;;29.20;18.10;;;;;;;3.58;91.38;100373.70;107713;1251;88765;-55
2023/01/20 11:13:11;;;;;;;30.30;17.90;;;;;;;3.69;91.46;100373.02;107725;1256;94967;-54
2023/01/20 11:15:49;;;;;;;30.60;17.20;;;;;;;3.68;91.54;100375.98;107761;1255;80356;-54
2023/01/20 11:18:35;;;;;;;28.20;15.10;;;;;;;3.69;91.38;100378.90;107738;1256;82313;-54
2023/01/20 11:21:23;;;;;;;28.20;17.30;;;;;;;3.63;91.51;100375.24;107729;1253;98454;-58
2023/01/20 11:24:03;;;;;;;31.30;18.10;;;;;;;3.58;91.01;100378.85;107718;1251;88165;-57
2023/01/20 11:26:39;;;;;;;30.20;17.40;;;;;;;3.57;90.75;100380.55;107748;1253;93850;-54
2023/01/20 11:32:35;;;;;;;28.40;16.20;;;;;;;3.57;90.72;100380.90;103899;1295;616069;-57
2023/01/20 11:35:27;;;;;;;26.80;15.90;;;;;;;3.55;90.74;100386.98;106775;1264;80340;-55
2023/01/20 11:38:24;;;;;;;32.20;17.40;;;;;;;3.58;90.94;100392.95;106715;1264;82838;-56
2023/01/20 11:40:58;;;;;;;31.90;17.60;;;;;;;3.67;90.78;100387.95;106716;1264;96961;-55
2023/01/20 11:43:36;;;;;;;26.40;15.10;;;;;;;3.79;90.68;100392.50;106734;1264;87262;-55
2023/01/20 11:46:26;;;;;;;28.60;16.00;;;;;;;3.87;90.57;100402.27;106597;1262;397703;-58
2023/01/20 11:49:19;;;;;;;29.00;17.10;;;;;;;3.82;90.63;100404.00;106901;1264;78798;-58
2023/01/20 11:51:53;;;;;;;30.90;17.50;;;;;;;3.78;90.51;100411.15;106860;1264;83485;-55
2023/01/20 11:54:29;;;;;;;28.70;16.70;;;;;;;3.75;90.27;100417.82;106831;1264;95437;-54
2023/01/20 11:57:06;;;;;;;24.50;15.20;;;;;;;3.65;90.17;100421.25;106946;1261;87954;-54
2023/01/20 11:59:48;;;;;;;23.70;15.60;;;;;;;3.56;90.01;100421.77;106982;1260;94366;-57
2023/01/20 12:02:29;;;;;;;25.70;16.10;;;;;;;3.51;90.10;100427.12;107041;1261;81477;-57
2023/01/20 12:05:17;;;;;;;24.30;14.70;;;;;;;3.47;90.01;100422.81;107073;1264;82129;-57
2023/01/20 12:07:56;;;;;;;24.30;14.50;;;;;;;3.44;90.17;100428.41;107088;1261;97207;-58
2023/01/20 12:10:35;;;;;;;22.80;14.60;;;;;;;3.41;90.08;100425.02;107033;1260;88469;-57
2023/01/20 12:13:24;;;;;;;23.30;14.20;;;;;;;3.39;89.99;100424.69;107099;1260;94048;-58
2023/01/20 12:16:02;;;;;;;23.60;14.20;;;;;;;3.29;89.93;100429.20;107101;1263;79887;-55
2023/01/20 12:18:46;;;;;;;23.60;13.70;;;;;;;3.28;89.79;100437.42;107000;1264;83357;-56
2023/01/20 12:21:21;;;;;;;22.90;13.40;;;;;;;3.21;89.70;100434.04;106968;1260;97390;-54
2023/01/20 12:24:11;;;;;;;25.60;14.90;;;;;;;3.21;89.81;100436.14;106975;1260;89561;-54
2023/01/20 12:26:48;;;;;;;25.30;13.70;;;;;;;3.19;89.66;100437.60;106898;1266;95200;-54
2023/01/20 12:29:32;;;;;;;26.70;15.20;;;;;;;3.11;89.74;100443.36;106932;1261;81245;-56
2023/01/20 12:32:06;;;;;;;26.30;13.10;;;;;;;3.05;89.53;100444.94;106925;1261;81397;-55
2023/01/20 12:34:39;;;;;;;25.30;13.30;;;;;;;3.08;89.72;100449.27;106975;1261;98256;-58
2023/01/20 12:37:24;;;;;;;27.50;15.20;;;;;;;3.07;89.83;100450.62;106987;1260;88624;-56